sensor_id;sensor_type;location;lat;lon;timestamp;pressure;altitude;pressure_sealevel;temperature;humidity
9717;BME280;4897;43.570;27.832;2023-05-14T00:01:09;99791.31;;;8.92;100.00
9717;BME280;4897;43.570;27.832;2023-05-14T00:03:35;99784.47;;;8.88;100.00
9717;BME280;4897;43.570;27.832;2023-05-14T00:06:04;99791.16;;;8.80;100.00
9717;BME280;4897;43.570;27.832;2023-05-14T00:08:31;99772.06;;;8.61;100.00
9717;BME280;4897;43.570;27.832;2023-05-14T00:10:58;99811.56;;;8.81;100.00
9717;BME280;4897;43.570;27.832;2023-05-14T00:13:26;99801.31;;;8.75;100.00
9717;BME280;4897;43.570;27.832;2023-05-14T00:15:53;99799.38;;;8.77;100.00
9717;BME280;4897;43.570;27.832;2023-05-14T00:18:20;99793.75;;;8.82;100.00
9717;BME280;4897;43.570;27.832;2023-05-14T00:20:47;99808.13;;;8.79;100.00
9717;BME280;4897;43.570;27.832;2023-05-14T00:23:15;99792.41;;;8.62;100.00
9717;BME280;4897;43.570;27.832;2023-05-14T00:25:42;99805.88;;;8.73;100.00
9717;BME280;4897;43.570;27.832;2023-05-14T00:28:09;99777.69;;;8.57;100.00
9717;BME280;4897;43.570;27.832;2023-05-14T00:30:40;99777.88;;;8.54;100.00
9717;BME280;4897;43.570;27.832;2023-05-14T00:33:07;99819.41;;;8.70;100.00
9717;BME280;4897;43.570;27.832;2023-05-14T00:35:34;99777.09;;;8.39;100.00
9717;BME280;4897;43.570;27.832;2023-05-14T00:38:01;99783.19;;;8.41;100.00
9717;BME280;4897;43.570;27.832;2023-05-14T00:40:28;99808.25;;;8.51;100.00
9717;BME280;4897;43.570;27.832;2023-05-14T00:42:55;99800.97;;;8.41;100.00
9717;BME280;4897;43.570;27.832;2023-05-14T00:45:23;99813.47;;;8.40;100.00
9717;BME280;4897;43.570;27.832;2023-05-14T00:47:52;99789.97;;;8.19;100.00
9717;BME280;4897;43.570;27.832;2023-05-14T00:50:19;99805.78;;;8.22;100.00
9717;BME280;4897;43.570;27.832;2023-05-14T00:52:47;99812.13;;;8.33;100.00
9717;BME280;4897;43.570;27.832;2023-05-14T00:55:16;99820.44;;;8.15;100.00
9717;BME280;4897;43.570;27.832;2023-05-14T00:57:44;99815.41;;;8.10;100.00
9717;BME280;4897;43.570;27.832;2023-05-14T01:00:12;99806.47;;;7.97;100.00
9717;BME280;4897;43.570;27.832;2023-05-14T01:02:39;99782.72;;;7.94;100.00
9717;BME280;4897;43.570;27.832;2023-05-14T01:05:07;99817.47;;;8.19;100.00
9717;BME280;4897;43.570;27.832;2023-05-14T01:07:40;99815.09;;;8.29;100.00
9717;BME280;4897;43.570;27.832;2023-05-14T01:10:13;99814.22;;;8.28;100.00
9717;BME280;4897;43.570;27.832;2023-05-14T01:12:46;99806.88;;;8.05;100.00
9717;BME280;4897;43.570;27.832;2023-05-14T01:15:21;99749.94;;;7.79;100.00
9717;BME280;4897;43.570;27.832;2023-05-14T01:17:52;99816.72;;;8.17;100.00
9717;BME280;4897;43.570;27.832;2023-05-14T01:20:21;99797.63;;;8.11;100.00
9717;BME280;4897;43.570;27.832;2023-05-14T01:22:50;99810.56;;;8.02;100.00
9717;BME280;4897;43.570;27.832;2023-05-14T01:25:16;99798.50;;;7.97;100.00
9717;BME280;4897;43.570;27.832;2023-05-14T01:27:48;99799.84;;;7.90;100.00
9717;BME280;4897;43.570;27.832;2023-05-14T01:30:25;99804.78;;;7.96;100.00
9717;BME280;4897;43.570;27.832;2023-05-14T01:32:57;99764.16;;;7.52;100.00
9717;BME280;4897;43.570;27.832;2023-05-14T01:35:27;99809.28;;;7.81;100.00
9717;BME280;4897;43.570;27.832;2023-05-14T01:37:57;99796.34;;;7.75;100.00
9717;BME280;4897;43.570;27.832;2023-05-14T01:40:26;99801.00;;;7.72;100.00
9717;BME280;4897;43.570;27.832;2023-05-14T01:42:53;99807.38;;;7.83;100.00
9717;BME280;4897;43.570;27.832;2023-05-14T01:45:24;99789.88;;;7.79;100.00
9717;BME280;4897;43.570;27.832;2023-05-14T01:47:52;99781.81;;;7.67;100.00
9717;BME280;4897;43.570;27.832;2023-05-14T01:50:19;99802.50;;;7.90;100.00
9717;BME280;4897;43.570;27.832;2023-05-14T01:52:46;99798.53;;;7.83;100.00
9717;BME280;4897;43.570;27.832;2023-05-14T01:55:14;99809.94;;;7.71;100.00
9717;BME280;4897;43.570;27.832;2023-05-14T01:57:42;99798.44;;;7.70;100.00
9717;BME280;4897;43.570;27.832;2023-05-14T02:00:10;99795.78;;;7.70;100.00
9717;BME280;4897;43.570;27.832;2023-05-14T02:02:37;99734.31;;;7.33;100.00
9717;BME280;4897;43.570;27.832;2023-05-14T02:05:04;99776.41;;;7.54;100.00
9717;BME280;4897;43.570;27.832;2023-05-14T02:07:31;99793.03;;;7.58;100.00
9717;BME280;4897;43.570;27.832;2023-05-14T02:09:58;99806.91;;;7.63;100.00
9717;BME280;4897;43.570;27.832;2023-05-14T02:12:27;99714.38;;;7.11;100.00
9717;BME280;4897;43.570;27.832;2023-05-14T02:14:53;99801.41;;;7.80;100.00
9717;BME280;4897;43.570;27.832;2023-05-14T02:17:20;99798.81;;;7.78;100.00
9717;BME280;4897;43.570;27.832;2023-05-14T02:19:48;99802.16;;;7.82;100.00
9717;BME280;4897;43.570;27.832;2023-05-14T02:22:15;99794.72;;;7.87;100.00
9717;BME280;4897;43.570;27.832;2023-05-14T02:24:41;99786.19;;;7.82;100.00
9717;BME280;4897;43.570;27.832;2023-05-14T02:27:08;99798.72;;;7.80;100.00
9717;BME280;4897;43.570;27.832;2023-05-14T02:29:38;99786.34;;;7.79;100.00
9717;BME280;4897;43.570;27.832;2023-05-14T02:32:06;99780.28;;;7.77;100.00
9717;BME280;4897;43.570;27.832;2023-05-14T02:34:33;99803.28;;;7.92;100.00
9717;BME280;4897;43.570;27.832;2023-05-14T02:37:00;99799.28;;;7.85;100.00
9717;BME280;4897;43.570;27.832;2023-05-14T02:39:27;99806.88;;;7.91;100.00
9717;BME280;4897;43.570;27.832;2023-05-14T02:41:54;99792.44;;;7.81;100.00
9717;BME280;4897;43.570;27.832;2023-05-14T02:44:21;99794.63;;;7.74;100.00
9717;BME280;4897;43.570;27.832;2023-05-14T02:46:49;99797.97;;;7.78;100.00
9717;BME280;4897;43.570;27.832;2023-05-14T02:49:16;99786.19;;;7.82;100.00
9717;BME280;4897;43.570;27.832;2023-05-14T02:51:42;99815.63;;;7.93;100.00
9717;BME280;4897;43.570;27.832;2023-05-14T02:54:09;99805.56;;;7.84;100.00
9717;BME280;4897;43.570;27.832;2023-05-14T02:56:36;99815.63;;;7.93;100.00
9717;BME280;4897;43.570;27.832;2023-05-14T02:59:03;99826.75;;;7.99;100.00
9717;BME280;4897;43.570;27.832;2023-05-14T03:01:30;99822.84;;;8.05;100.00
9717;BME280;4897;43.570;27.832;2023-05-14T03:03:58;99835.94;;;8.08;100.00
9717;BME280;4897;43.570;27.832;2023-05-14T03:06:25;99828.53;;;8.13;100.00
9717;BME280;4897;43.570;27.832;2023-05-14T03:08:52;99833.47;;;8.19;100.00
9717;BME280;4897;43.570;27.832;2023-05-14T03:11:19;99793.91;;;7.99;100.00
9717;BME280;4897;43.570;27.832;2023-05-14T03:13:46;99820.16;;;8.19;100.00
9717;BME280;4897;43.570;27.832;2023-05-14T03:16:13;99820.34;;;8.30;100.00
9717;BME280;4897;43.570;27.832;2023-05-14T03:18:40;99803.13;;;8.22;100.00
9717;BME280;4897;43.570;27.832;2023-05-14T03:21:08;99828.81;;;8.49;100.00
9717;BME280;4897;43.570;27.832;2023-05-14T03:23:35;99813.81;;;8.48;100.00
9717;BME280;4897;43.570;27.832;2023-05-14T03:26:02;99815.31;;;8.52;100.00
9717;BME280;4897;43.570;27.832;2023-05-14T03:28:29;99704.00;;;7.90;100.00
9717;BME280;4897;43.570;27.832;2023-05-14T03:30:56;99788.81;;;8.37;100.00
9717;BME280;4897;43.570;27.832;2023-05-14T03:33:23;99793.13;;;8.52;100.00
9717;BME280;4897;43.570;27.832;2023-05-14T03:35:50;99817.50;;;8.72;100.00
9717;BME280;4897;43.570;27.832;2023-05-14T03:38:18;99817.84;;;8.93;100.00
9717;BME280;4897;43.570;27.832;2023-05-14T03:40:45;99727.69;;;8.60;100.00
9717;BME280;4897;43.570;27.832;2023-05-14T03:43:12;99825.28;;;9.27;100.00
9717;BME280;4897;43.570;27.832;2023-05-14T03:45:39;99824.88;;;9.46;100.00
9717;BME280;4897;43.570;27.832;2023-05-14T03:48:06;99831.13;;;9.70;100.00
9717;BME280;4897;43.570;27.832;2023-05-14T03:50:33;99832.94;;;9.95;100.00
9717;BME280;4897;43.570;27.832;2023-05-14T03:53:00;99813.91;;;10.12;100.00
9717;BME280;4897;43.570;27.832;2023-05-14T03:55:29;99827.03;;;10.51;100.00
9717;BME280;4897;43.570;27.832;2023-05-14T03:57:55;99809.22;;;10.63;100.00
9717;BME280;4897;43.570;27.832;2023-05-14T04:00:22;99831.75;;;10.95;100.00
9717;BME280;4897;43.570;27.832;2023-05-14T04:02:49;99826.13;;;11.33;100.00
9717;BME280;4897;43.570;27.832;2023-05-14T04:05:16;99831.22;;;11.36;100.00
9717;BME280;4897;43.570;27.832;2023-05-14T04:07:43;99834.81;;;11.47;100.00
9717;BME280;4897;43.570;27.832;2023-05-14T04:10:11;99840.50;;;11.54;100.00
9717;BME280;4897;43.570;27.832;2023-05-14T04:12:39;99807.38;;;11.44;100.00
9717;BME280;4897;43.570;27.832;2023-05-14T04:15:08;99845.81;;;11.77;100.00
9717;BME280;4897;43.570;27.832;2023-05-14T04:17:34;99828.25;;;11.95;100.00
9717;BME280;4897;43.570;27.832;2023-05-14T04:20:01;99842.03;;;12.24;100.00
9717;BME280;4897;43.570;27.832;2023-05-14T04:22:28;99846.03;;;12.41;100.00
9717;BME280;4897;43.570;27.832;2023-05-14T04:24:56;99850.09;;;12.67;100.00
9717;BME280;4897;43.570;27.832;2023-05-14T04:27:23;99815.88;;;12.59;100.00
9717;BME280;4897;43.570;27.832;2023-05-14T04:29:51;99834.31;;;12.84;100.00
9717;BME280;4897;43.570;27.832;2023-05-14T04:32:18;99847.81;;;12.94;100.00
9717;BME280;4897;43.570;27.832;2023-05-14T04:34:45;99829.00;;;12.94;100.00
9717;BME280;4897;43.570;27.832;2023-05-14T04:37:12;99830.00;;;12.93;100.00
9717;BME280;4897;43.570;27.832;2023-05-14T04:39:39;99830.97;;;12.92;100.00
9717;BME280;4897;43.570;27.832;2023-05-14T04:42:06;99789.78;;;12.50;100.00
9717;BME280;4897;43.570;27.832;2023-05-14T04:44:34;99836.72;;;12.88;100.00
9717;BME280;4897;43.570;27.832;2023-05-14T04:47:03;99831.25;;;12.89;100.00
9717;BME280;4897;43.570;27.832;2023-05-14T04:49:33;99836.94;;;13.07;100.00
9717;BME280;4897;43.570;27.832;2023-05-14T04:52:00;99844.13;;;13.27;100.00
9717;BME280;4897;43.570;27.832;2023-05-14T04:54:27;99750.50;;;12.81;100.00
9717;BME280;4897;43.570;27.832;2023-05-14T04:56:54;99812.25;;;13.33;100.00
9717;BME280;4897;43.570;27.832;2023-05-14T04:59:21;99831.44;;;13.70;100.00
9717;BME280;4897;43.570;27.832;2023-05-14T05:01:51;99837.19;;;13.96;100.00
9717;BME280;4897;43.570;27.832;2023-05-14T05:04:19;99834.88;;;14.12;100.00
9717;BME280;4897;43.570;27.832;2023-05-14T05:06:48;99819.16;;;14.17;100.00
9717;BME280;4897;43.570;27.832;2023-05-14T05:09:16;99791.63;;;14.34;100.00
9717;BME280;4897;43.570;27.832;2023-05-14T05:11:43;99802.72;;;14.69;100.00
9717;BME280;4897;43.570;27.832;2023-05-14T05:14:10;99802.31;;;14.83;100.00
9717;BME280;4897;43.570;27.832;2023-05-14T05:16:37;99782.47;;;14.94;100.00
9717;BME280;4897;43.570;27.832;2023-05-14T05:19:04;99794.06;;;15.23;100.00
9717;BME280;4897;43.570;27.832;2023-05-14T05:21:32;99778.47;;;15.27;100.00
9717;BME280;4897;43.570;27.832;2023-05-14T05:23:59;99793.44;;;15.67;100.00
9717;BME280;4897;43.570;27.832;2023-05-14T05:26:26;99803.50;;;16.02;100.00
9717;BME280;4897;43.570;27.832;2023-05-14T05:28:53;99799.38;;;16.62;100.00
9717;BME280;4897;43.570;27.832;2023-05-14T05:31:20;99794.41;;;17.28;90.61
9717;BME280;4897;43.570;27.832;2023-05-14T05:33:46;99795.34;;;17.54;85.84
9717;BME280;4897;43.570;27.832;2023-05-14T05:36:13;99788.38;;;17.34;85.43
9717;BME280;4897;43.570;27.832;2023-05-14T05:38:42;99804.94;;;17.31;88.91
9717;BME280;4897;43.570;27.832;2023-05-14T05:41:11;99802.88;;;17.50;85.40
9717;BME280;4897;43.570;27.832;2023-05-14T05:43:38;99783.97;;;18.44;77.41
9717;BME280;4897;43.570;27.832;2023-05-14T05:46:05;99792.38;;;19.23;66.84
9717;BME280;4897;43.570;27.832;2023-05-14T05:48:32;99783.75;;;20.14;62.45
9717;BME280;4897;43.570;27.832;2023-05-14T05:50:59;99681.47;;;20.37;57.44
9717;BME280;4897;43.570;27.832;2023-05-14T05:53:26;99761.28;;;20.59;55.52
9717;BME280;4897;43.570;27.832;2023-05-14T05:55:54;99772.06;;;20.75;55.83
9717;BME280;4897;43.570;27.832;2023-05-14T05:58:21;99773.88;;;20.83;53.43
9717;BME280;4897;43.570;27.832;2023-05-14T06:00:48;99760.22;;;20.68;52.45
9717;BME280;4897;43.570;27.832;2023-05-14T06:03:15;99772.84;;;21.14;51.53
9717;BME280;4897;43.570;27.832;2023-05-14T06:05:42;99764.78;;;21.58;50.17
9717;BME280;4897;43.570;27.832;2023-05-14T06:08:12;99748.78;;;21.92;48.86
9717;BME280;4897;43.570;27.832;2023-05-14T06:10:39;99747.72;;;21.79;47.36
9717;BME280;4897;43.570;27.832;2023-05-14T06:13:07;99779.03;;;21.60;47.38
9717;BME280;4897;43.570;27.832;2023-05-14T06:15:35;99755.81;;;21.35;47.15
9717;BME280;4897;43.570;27.832;2023-05-14T06:18:01;99762.09;;;20.37;48.88
9717;BME280;4897;43.570;27.832;2023-05-14T06:20:31;99766.69;;;19.89;50.21
9717;BME280;4897;43.570;27.832;2023-05-14T06:23:03;99768.47;;;19.26;50.65
9717;BME280;4897;43.570;27.832;2023-05-14T06:25:30;99779.31;;;19.18;51.90
9717;BME280;4897;43.570;27.832;2023-05-14T06:27:57;99762.03;;;18.79;52.92
9717;BME280;4897;43.570;27.832;2023-05-14T06:30:25;99784.06;;;19.00;53.40
9717;BME280;4897;43.570;27.832;2023-05-14T06:32:52;99791.84;;;18.87;52.52
9717;BME280;4897;43.570;27.832;2023-05-14T06:35:19;99789.31;;;18.93;52.22
9717;BME280;4897;43.570;27.832;2023-05-14T06:37:45;99773.94;;;18.44;53.69
9717;BME280;4897;43.570;27.832;2023-05-14T06:40:15;99774.53;;;18.64;53.91
9717;BME280;4897;43.570;27.832;2023-05-14T06:42:42;99793.69;;;18.86;53.56
9717;BME280;4897;43.570;27.832;2023-05-14T06:45:09;99811.19;;;19.00;53.50
9717;BME280;4897;43.570;27.832;2023-05-14T06:47:38;99805.75;;;18.92;52.53
9717;BME280;4897;43.570;27.832;2023-05-14T06:50:06;99810.63;;;18.88;50.81
9717;BME280;4897;43.570;27.832;2023-05-14T06:52:33;99802.34;;;18.90;50.87
9717;BME280;4897;43.570;27.832;2023-05-14T06:54:59;99819.31;;;19.08;50.88
9717;BME280;4897;43.570;27.832;2023-05-14T06:57:26;99734.75;;;18.72;50.12
9717;BME280;4897;43.570;27.832;2023-05-14T06:59:53;99821.91;;;19.34;50.48
9717;BME280;4897;43.570;27.832;2023-05-14T07:02:20;99811.53;;;19.45;50.24
9717;BME280;4897;43.570;27.832;2023-05-14T07:04:53;99805.09;;;19.46;50.22
9717;BME280;4897;43.570;27.832;2023-05-14T07:07:20;99808.97;;;19.68;49.58
9717;BME280;4897;43.570;27.832;2023-05-14T07:09:47;99812.03;;;19.73;49.64
9717;BME280;4897;43.570;27.832;2023-05-14T07:12:16;99810.16;;;19.65;48.72
9717;BME280;4897;43.570;27.832;2023-05-14T07:14:43;99799.69;;;19.54;48.86
9717;BME280;4897;43.570;27.832;2023-05-14T07:17:11;99819.00;;;19.59;48.05
9717;BME280;4897;43.570;27.832;2023-05-14T07:19:37;99796.28;;;19.60;47.40
9717;BME280;4897;43.570;27.832;2023-05-14T07:22:06;99805.69;;;19.88;47.24
9717;BME280;4897;43.570;27.832;2023-05-14T07:24:33;99812.47;;;19.92;46.51
9717;BME280;4897;43.570;27.832;2023-05-14T07:27:00;99809.56;;;20.10;46.59
9717;BME280;4897;43.570;27.832;2023-05-14T07:29:27;99807.97;;;20.32;45.17
9717;BME280;4897;43.570;27.832;2023-05-14T07:31:55;99808.53;;;20.58;43.86
9717;BME280;4897;43.570;27.832;2023-05-14T07:34:22;99790.66;;;20.63;42.79
9717;BME280;4897;43.570;27.832;2023-05-14T07:36:49;99801.91;;;20.83;43.09
9717;BME280;4897;43.570;27.832;2023-05-14T07:39:17;99789.50;;;21.11;43.16
9717;BME280;4897;43.570;27.832;2023-05-14T07:41:47;99811.31;;;21.48;42.11
9717;BME280;4897;43.570;27.832;2023-05-14T07:44:14;99794.41;;;22.49;41.15
9717;BME280;4897;43.570;27.832;2023-05-14T07:46:44;99746.03;;;23.97;39.16
9717;BME280;4897;43.570;27.832;2023-05-14T07:49:11;99788.53;;;24.81;37.02
9717;BME280;4897;43.570;27.832;2023-05-14T07:51:38;99790.53;;;25.39;34.74
9717;BME280;4897;43.570;27.832;2023-05-14T07:54:05;99790.78;;;25.71;34.63
9717;BME280;4897;43.570;27.832;2023-05-14T07:56:33;99779.00;;;25.57;34.62
9717;BME280;4897;43.570;27.832;2023-05-14T07:59:00;99779.00;;;25.51;34.94
9717;BME280;4897;43.570;27.832;2023-05-14T08:01:29;99798.91;;;26.43;34.05
9717;BME280;4897;43.570;27.832;2023-05-14T08:03:59;99750.47;;;27.37;32.20
9717;BME280;4897;43.570;27.832;2023-05-14T08:06:26;99786.47;;;27.22;32.62
9717;BME280;4897;43.570;27.832;2023-05-14T08:08:54;99797.31;;;28.16;31.39
9717;BME280;4897;43.570;27.832;2023-05-14T08:11:20;99786.47;;;28.21;31.03
9717;BME280;4897;43.570;27.832;2023-05-14T08:13:49;99785.09;;;28.30;30.86
9717;BME280;4897;43.570;27.832;2023-05-14T08:16:16;99781.06;;;27.90;31.25
9717;BME280;4897;43.570;27.832;2023-05-14T08:18:43;99803.34;;;26.88;31.43
9717;BME280;4897;43.570;27.832;2023-05-14T08:21:10;99797.06;;;27.12;31.19
9717;BME280;4897;43.570;27.832;2023-05-14T08:23:36;99779.34;;;26.06;31.67
9717;BME280;4897;43.570;27.832;2023-05-14T08:26:03;99796.66;;;25.74;31.75
9717;BME280;4897;43.570;27.832;2023-05-14T08:28:30;99806.75;;;26.00;32.22
9717;BME280;4897;43.570;27.832;2023-05-14T08:30:59;99802.63;;;26.61;30.21
9717;BME280;4897;43.570;27.832;2023-05-14T08:33:26;99787.16;;;26.80;30.22
9717;BME280;4897;43.570;27.832;2023-05-14T08:35:53;99733.44;;;25.10;30.26
9717;BME280;4897;43.570;27.832;2023-05-14T08:38:22;99805.09;;;25.73;30.39
9717;BME280;4897;43.570;27.832;2023-05-14T08:40:55;99779.56;;;26.75;29.53
9717;BME280;4897;43.570;27.832;2023-05-14T08:43:29;99777.84;;;26.24;29.89
9717;BME280;4897;43.570;27.832;2023-05-14T08:45:59;99784.03;;;25.60;31.50
9717;BME280;4897;43.570;27.832;2023-05-14T08:48:31;99780.22;;;25.35;31.85
9717;BME280;4897;43.570;27.832;2023-05-14T08:50:58;99775.56;;;25.94;31.71
9717;BME280;4897;43.570;27.832;2023-05-14T08:53:26;99772.09;;;26.45;31.02
9717;BME280;4897;43.570;27.832;2023-05-14T08:55:53;99631.91;;;26.59;29.94
9717;BME280;4897;43.570;27.832;2023-05-14T08:58:20;99753.03;;;28.06;29.20
9717;BME280;4897;43.570;27.832;2023-05-14T09:00:47;99718.84;;;27.95;29.73
9717;BME280;4897;43.570;27.832;2023-05-14T09:03:16;99744.88;;;28.65;28.95
9717;BME280;4897;43.570;27.832;2023-05-14T09:05:43;99763.25;;;29.12;28.71
9717;BME280;4897;43.570;27.832;2023-05-14T09:08:13;99775.69;;;29.97;27.76
9717;BME280;4897;43.570;27.832;2023-05-14T09:10:40;99715.53;;;30.34;26.63
9717;BME280;4897;43.570;27.832;2023-05-14T09:13:07;99748.00;;;30.95;26.31
9717;BME280;4897;43.570;27.832;2023-05-14T09:15:35;99755.84;;;30.24;26.40
9717;BME280;4897;43.570;27.832;2023-05-14T09:18:04;99760.09;;;31.06;25.95
9717;BME280;4897;43.570;27.832;2023-05-14T09:20:32;99743.41;;;31.95;25.15
9717;BME280;4897;43.570;27.832;2023-05-14T09:23:00;99748.13;;;32.38;25.02
9717;BME280;4897;43.570;27.832;2023-05-14T09:25:32;99752.13;;;31.54;25.05
9717;BME280;4897;43.570;27.832;2023-05-14T09:28:05;99753.53;;;32.28;24.42
9717;BME280;4897;43.570;27.832;2023-05-14T09:30:32;99742.75;;;32.48;23.96
9717;BME280;4897;43.570;27.832;2023-05-14T09:33:01;99759.16;;;31.45;24.72
9717;BME280;4897;43.570;27.832;2023-05-14T09:35:30;99756.72;;;31.65;24.57
9717;BME280;4897;43.570;27.832;2023-05-14T09:37:59;99751.00;;;31.88;24.19
9717;BME280;4897;43.570;27.832;2023-05-14T09:40:30;99598.72;;;29.66;25.12
9717;BME280;4897;43.570;27.832;2023-05-14T09:42:57;99754.50;;;30.49;25.68
9717;BME280;4897;43.570;27.832;2023-05-14T09:45:31;99723.78;;;31.64;24.67
9717;BME280;4897;43.570;27.832;2023-05-14T09:48:00;99742.63;;;30.89;25.03
9717;BME280;4897;43.570;27.832;2023-05-14T09:50:27;99764.06;;;30.58;25.14
9717;BME280;4897;43.570;27.832;2023-05-14T09:52:54;99733.44;;;31.00;24.70
9717;BME280;4897;43.570;27.832;2023-05-14T09:55:24;99752.69;;;30.55;25.57
9717;BME280;4897;43.570;27.832;2023-05-14T09:57:51;99752.94;;;29.38;25.69
9717;BME280;4897;43.570;27.832;2023-05-14T10:00:18;99737.25;;;29.27;25.88
9717;BME280;4897;43.570;27.832;2023-05-14T10:02:46;99687.59;;;28.26;26.33
9717;BME280;4897;43.570;27.832;2023-05-14T10:05:13;99707.44;;;29.05;26.26
9717;BME280;4897;43.570;27.832;2023-05-14T10:07:45;99750.16;;;29.26;26.83
9717;BME280;4897;43.570;27.832;2023-05-14T10:10:14;99759.97;;;28.92;26.97
9717;BME280;4897;43.570;27.832;2023-05-14T10:12:47;99745.38;;;28.26;27.26
9717;BME280;4897;43.570;27.832;2023-05-14T10:15:19;99755.47;;;27.46;28.12
9717;BME280;4897;43.570;27.832;2023-05-14T10:17:55;99755.56;;;27.27;28.32
9717;BME280;4897;43.570;27.832;2023-05-14T10:20:22;99765.97;;;26.43;28.95
9717;BME280;4897;43.570;27.832;2023-05-14T10:22:51;99707.97;;;25.23;30.26
9717;BME280;4897;43.570;27.832;2023-05-14T10:25:18;99756.59;;;25.08;30.40
9717;BME280;4897;43.570;27.832;2023-05-14T10:27:46;99748.81;;;25.31;30.97
9717;BME280;4897;43.570;27.832;2023-05-14T10:30:13;99750.31;;;25.40;31.08
9717;BME280;4897;43.570;27.832;2023-05-14T10:32:40;99748.25;;;25.49;30.43
9717;BME280;4897;43.570;27.832;2023-05-14T10:35:15;99740.44;;;25.65;30.96
9717;BME280;4897;43.570;27.832;2023-05-14T10:37:44;99756.63;;;25.73;31.30
9717;BME280;4897;43.570;27.832;2023-05-14T10:40:15;99751.31;;;25.91;30.76
9717;BME280;4897;43.570;27.832;2023-05-14T10:42:46;99753.66;;;25.94;31.04
9717;BME280;4897;43.570;27.832;2023-05-14T10:45:14;99752.66;;;25.50;30.79
9717;BME280;4897;43.570;27.832;2023-05-14T10:47:45;99623.97;;;25.30;30.64
9717;BME280;4897;43.570;27.832;2023-05-14T10:50:13;99735.81;;;26.43;30.48
9717;BME280;4897;43.570;27.832;2023-05-14T10:52:42;99734.84;;;26.62;30.06
9717;BME280;4897;43.570;27.832;2023-05-14T10:55:12;99742.44;;;26.73;30.59
9717;BME280;4897;43.570;27.832;2023-05-14T10:57:41;99761.47;;;25.32;31.47
9717;BME280;4897;43.570;27.832;2023-05-14T11:00:11;99756.78;;;24.93;32.34
9717;BME280;4897;43.570;27.832;2023-05-14T11:02:39;99766.06;;;24.99;32.01
9717;BME280;4897;43.570;27.832;2023-05-14T11:05:08;99774.72;;;25.15;32.28
9717;BME280;4897;43.570;27.832;2023-05-14T11:07:36;99770.06;;;25.16;31.65
9717;BME280;4897;43.570;27.832;2023-05-14T11:10:05;99727.63;;;24.59;32.33
9717;BME280;4897;43.570;27.832;2023-05-14T11:12:34;99771.53;;;24.45;32.60
9717;BME280;4897;43.570;27.832;2023-05-14T11:15:06;99756.31;;;23.61;33.63
9717;BME280;4897;43.570;27.832;2023-05-14T11:17:36;99766.84;;;23.15;34.38
9717;BME280;4897;43.570;27.832;2023-05-14T11:20:05;99759.53;;;23.43;34.33
9717;BME280;4897;43.570;27.832;2023-05-14T11:22:32;99751.34;;;23.22;34.75
9717;BME280;4897;43.570;27.832;2023-05-14T11:25:00;99747.16;;;23.20;34.84
9717;BME280;4897;43.570;27.832;2023-05-14T11:27:27;99727.78;;;23.63;34.15
9717;BME280;4897;43.570;27.832;2023-05-14T11:29:55;99759.94;;;24.02;34.38
9717;BME280;4897;43.570;27.832;2023-05-14T11:32:22;99750.69;;;23.97;34.14
9717;BME280;4897;43.570;27.832;2023-05-14T11:34:51;99750.69;;;24.03;33.95
9717;BME280;4897;43.570;27.832;2023-05-14T11:37:18;99751.03;;;23.59;34.24
9717;BME280;4897;43.570;27.832;2023-05-14T11:39:46;99755.47;;;23.33;34.64
9717;BME280;4897;43.570;27.832;2023-05-14T11:42:13;99735.22;;;22.64;35.33
9717;BME280;4897;43.570;27.832;2023-05-14T11:44:43;99738.91;;;22.06;36.40
9717;BME280;4897;43.570;27.832;2023-05-14T11:47:10;99728.84;;;22.21;35.69
9717;BME280;4897;43.570;27.832;2023-05-14T11:49:37;99711.38;;;22.51;36.40
9717;BME280;4897;43.570;27.832;2023-05-14T11:52:07;99702.16;;;22.67;36.30
9717;BME280;4897;43.570;27.832;2023-05-14T11:54:34;99690.97;;;22.62;36.59
9717;BME280;4897;43.570;27.832;2023-05-14T11:57:07;99687.00;;;23.07;36.04
9717;BME280;4897;43.570;27.832;2023-05-14T11:59:34;99684.22;;;23.00;36.05
9717;BME280;4897;43.570;27.832;2023-05-14T12:02:02;99685.22;;;22.92;36.21
9717;BME280;4897;43.570;27.832;2023-05-14T12:04:29;99677.75;;;23.08;36.11
9717;BME280;4897;43.570;27.832;2023-05-14T12:06:57;99640.78;;;22.77;36.03
9717;BME280;4897;43.570;27.832;2023-05-14T12:09:26;99636.41;;;23.32;35.51
9717;BME280;4897;43.570;27.832;2023-05-14T12:11:53;99670.56;;;24.37;34.66
9717;BME280;4897;43.570;27.832;2023-05-14T12:14:21;99661.88;;;24.94;33.63
9717;BME280;4897;43.570;27.832;2023-05-14T12:16:49;99664.19;;;24.84;33.54
9717;BME280;4897;43.570;27.832;2023-05-14T12:19:18;99665.25;;;25.09;33.30
9717;BME280;4897;43.570;27.832;2023-05-14T12:21:47;99663.34;;;25.42;33.04
9717;BME280;4897;43.570;27.832;2023-05-14T12:24:17;99640.00;;;24.07;34.46
9717;BME280;4897;43.570;27.832;2023-05-14T12:26:47;99636.50;;;23.45;34.17
9717;BME280;4897;43.570;27.832;2023-05-14T12:29:15;99658.09;;;22.63;35.69
9717;BME280;4897;43.570;27.832;2023-05-14T12:31:45;99625.03;;;22.73;35.39
9717;BME280;4897;43.570;27.832;2023-05-14T12:34:12;99644.88;;;23.43;35.24
9717;BME280;4897;43.570;27.832;2023-05-14T12:36:39;99654.22;;;23.96;35.03
9717;BME280;4897;43.570;27.832;2023-05-14T12:39:07;99641.91;;;24.13;34.44
9717;BME280;4897;43.570;27.832;2023-05-14T12:41:39;99670.81;;;24.01;34.23
9717;BME280;4897;43.570;27.832;2023-05-14T12:44:08;99654.19;;;23.55;35.14
9717;BME280;4897;43.570;27.832;2023-05-14T12:46:34;99618.84;;;23.41;35.44
9717;BME280;4897;43.570;27.832;2023-05-14T12:49:02;99630.13;;;23.72;35.42
9717;BME280;4897;43.570;27.832;2023-05-14T12:51:31;99576.25;;;24.00;33.67
9717;BME280;4897;43.570;27.832;2023-05-14T12:53:58;99666.34;;;24.28;34.21
9717;BME280;4897;43.570;27.832;2023-05-14T12:56:25;99649.25;;;24.86;33.60
9717;BME280;4897;43.570;27.832;2023-05-14T12:58:53;99640.34;;;25.56;32.05
9717;BME280;4897;43.570;27.832;2023-05-14T13:01:23;99641.56;;;25.80;31.92
9717;BME280;4897;43.570;27.832;2023-05-14T13:03:50;99644.81;;;26.01;32.24
9717;BME280;4897;43.570;27.832;2023-05-14T13:06:19;99634.72;;;26.08;32.07
9717;BME280;4897;43.570;27.832;2023-05-14T13:08:46;99653.31;;;27.07;31.23
9717;BME280;4897;43.570;27.832;2023-05-14T13:11:13;99649.41;;;27.14;30.49
9717;BME280;4897;43.570;27.832;2023-05-14T13:13:40;99627.41;;;27.63;29.88